sensor_id;sensor_type;location;lat;lon;timestamp;temperature;humidity
41694;DHT22;27377;50.666;9.150;2023-06-22T00:01:52;19.70;99.90
41694;DHT22;27377;50.666;9.150;2023-06-22T00:04:18;19.70;99.90
41694;DHT22;27377;50.666;9.150;2023-06-22T00:06:43;19.70;99.90
41694;DHT22;27377;50.666;9.150;2023-06-22T00:09:09;19.70;99.90
41694;DHT22;27377;50.666;9.150;2023-06-22T00:11:36;19.70;99.90
41694;DHT22;27377;50.666;9.150;2023-06-22T00:14:02;19.70;99.90
41694;DHT22;27377;50.666;9.150;2023-06-22T00:16:28;19.70;99.90
41694;DHT22;27377;50.666;9.150;2023-06-22T00:18:54;19.70;99.90
41694;DHT22;27377;50.666;9.150;2023-06-22T00:21:29;19.70;99.90
41694;DHT22;27377;50.666;9.150;2023-06-22T00:23:58;19.70;99.90
41694;DHT22;27377;50.666;9.150;2023-06-22T00:26:30;19.60;99.90
41694;DHT22;27377;50.666;9.150;2023-06-22T00:28:56;19.60;99.90
41694;DHT22;27377;50.666;9.150;2023-06-22T00:31:21;19.60;99.90
41694;DHT22;27377;50.666;9.150;2023-06-22T00:33:47;19.60;99.90
41694;DHT22;27377;50.666;9.150;2023-06-22T00:36:16;19.70;99.90
41694;DHT22;27377;50.666;9.150;2023-06-22T00:38:43;19.60;99.90
41694;DHT22;27377;50.666;9.150;2023-06-22T00:41:11;19.60;99.90
41694;DHT22;27377;50.666;9.150;2023-06-22T00:43:40;19.60;99.90
41694;DHT22;27377;50.666;9.150;2023-06-22T00:46:09;19.60;99.90
41694;DHT22;27377;50.666;9.150;2023-06-22T00:48:35;19.60;99.90
41694;DHT22;27377;50.666;9.150;2023-06-22T00:51:02;19.60;99.90
41694;DHT22;27377;50.666;9.150;2023-06-22T00:53:28;19.50;99.90
41694;DHT22;27377;50.666;9.150;2023-06-22T00:55:53;19.50;99.90
41694;DHT22;27377;50.666;9.150;2023-06-22T00:58:21;19.50;99.90
41694;DHT22;27377;50.666;9.150;2023-06-22T01:00:48;19.50;99.90
41694;DHT22;27377;50.666;9.150;2023-06-22T01:03:16;19.50;99.90
41694;DHT22;27377;50.666;9.150;2023-06-22T01:05:42;19.50;99.90
41694;DHT22;27377;50.666;9.150;2023-06-22T01:08:42;19.60;99.90
41694;DHT22;27377;50.666;9.150;2023-06-22T01:11:17;19.60;99.90
41694;DHT22;27377;50.666;9.150;2023-06-22T01:13:57;19.70;99.90
41694;DHT22;27377;50.666;9.150;2023-06-22T01:16:35;19.70;99.90
41694;DHT22;27377;50.666;9.150;2023-06-22T01:19:43;19.70;99.90
41694;DHT22;27377;50.666;9.150;2023-06-22T01:22:11;19.70;99.90
41694;DHT22;27377;50.666;9.150;2023-06-22T01:25:03;19.70;99.90
41694;DHT22;27377;50.666;9.150;2023-06-22T01:27:43;19.70;99.90
41694;DHT22;27377;50.666;9.150;2023-06-22T01:30:14;19.70;99.90
41694;DHT22;27377;50.666;9.150;2023-06-22T01:32:40;19.80;99.90
41694;DHT22;27377;50.666;9.150;2023-06-22T01:35:08;19.80;99.90
41694;DHT22;27377;50.666;9.150;2023-06-22T01:37:36;19.80;99.90
41694;DHT22;27377;50.666;9.150;2023-06-22T01:40:02;19.80;99.90
41694;DHT22;27377;50.666;9.150;2023-06-22T01:42:30;19.80;99.90
41694;DHT22;27377;50.666;9.150;2023-06-22T01:44:57;19.70;99.90
41694;DHT22;27377;50.666;9.150;2023-06-22T01:47:24;19.70;99.90
41694;DHT22;27377;50.666;9.150;2023-06-22T01:49:50;19.70;99.90
41694;DHT22;27377;50.666;9.150;2023-06-22T01:52:19;19.70;99.90
41694;DHT22;27377;50.666;9.150;2023-06-22T01:54:46;19.70;99.90
41694;DHT22;27377;50.666;9.150;2023-06-22T01:57:12;19.70;99.90
41694;DHT22;27377;50.666;9.150;2023-06-22T01:59:49;19.70;99.90
41694;DHT22;27377;50.666;9.150;2023-06-22T02:02:20;19.70;99.90
41694;DHT22;27377;50.666;9.150;2023-06-22T02:04:59;19.60;99.90
41694;DHT22;27377;50.666;9.150;2023-06-22T02:07:41;19.60;99.90
41694;DHT22;27377;50.666;9.150;2023-06-22T02:10:10;19.60;99.90
41694;DHT22;27377;50.666;9.150;2023-06-22T02:12:39;19.60;99.90
41694;DHT22;27377;50.666;9.150;2023-06-22T02:15:07;19.60;99.90
41694;DHT22;27377;50.666;9.150;2023-06-22T02:17:34;19.60;99.90
41694;DHT22;27377;50.666;9.150;2023-06-22T02:20:02;19.60;99.90
41694;DHT22;27377;50.666;9.150;2023-06-22T02:22:34;19.60;99.90
41694;DHT22;27377;50.666;9.150;2023-06-22T02:25:01;19.60;99.90
41694;DHT22;27377;50.666;9.150;2023-06-22T02:27:27;19.60;99.90
41694;DHT22;27377;50.666;9.150;2023-06-22T02:29:55;19.60;99.90
41694;DHT22;27377;50.666;9.150;2023-06-22T02:32:21;19.50;99.90
41694;DHT22;27377;50.666;9.150;2023-06-22T02:34:46;19.50;99.90
41694;DHT22;27377;50.666;9.150;2023-06-22T02:37:16;19.50;99.90
41694;DHT22;27377;50.666;9.150;2023-06-22T02:39:42;19.50;99.90
41694;DHT22;27377;50.666;9.150;2023-06-22T02:42:08;19.40;99.90
41694;DHT22;27377;50.666;9.150;2023-06-22T02:44:38;19.40;99.90
41694;DHT22;27377;50.666;9.150;2023-06-22T02:47:04;19.50;99.90
41694;DHT22;27377;50.666;9.150;2023-06-22T02:49:29;19.50;99.90
41694;DHT22;27377;50.666;9.150;2023-06-22T02:51:55;19.50;99.90
41694;DHT22;27377;50.666;9.150;2023-06-22T02:54:21;19.50;99.90
41694;DHT22;27377;50.666;9.150;2023-06-22T02:56:46;19.50;99.90
41694;DHT22;27377;50.666;9.150;2023-06-22T02:59:13;19.50;99.90
41694;DHT22;27377;50.666;9.150;2023-06-22T03:01:39;19.50;99.90
41694;DHT22;27377;50.666;9.150;2023-06-22T03:04:08;19.50;99.90
41694;DHT22;27377;50.666;9.150;2023-06-22T03:06:34;19.40;99.90
41694;DHT22;27377;50.666;9.150;2023-06-22T03:09:02;19.40;99.90
41694;DHT22;27377;50.666;9.150;2023-06-22T03:11:33;19.40;99.90
41694;DHT22;27377;50.666;9.150;2023-06-22T03:13:59;19.30;99.90
41694;DHT22;27377;50.666;9.150;2023-06-22T03:16:25;19.30;99.90
41694;DHT22;27377;50.666;9.150;2023-06-22T03:18:51;19.30;99.90
41694;DHT22;27377;50.666;9.150;2023-06-22T03:21:16;19.30;99.90
41694;DHT22;27377;50.666;9.150;2023-06-22T03:23:43;19.30;99.90
41694;DHT22;27377;50.666;9.150;2023-06-22T03:26:09;19.30;99.90
41694;DHT22;27377;50.666;9.150;2023-06-22T03:28:35;19.30;99.90
41694;DHT22;27377;50.666;9.150;2023-06-22T03:31:00;19.30;99.90
41694;DHT22;27377;50.666;9.150;2023-06-22T03:33:26;19.30;99.90
41694;DHT22;27377;50.666;9.150;2023-06-22T03:35:51;19.30;99.90
41694;DHT22;27377;50.666;9.150;2023-06-22T03:38:17;19.30;99.90
41694;DHT22;27377;50.666;9.150;2023-06-22T03:40:43;19.40;99.90
41694;DHT22;27377;50.666;9.150;2023-06-22T03:43:09;19.40;99.90
41694;DHT22;27377;50.666;9.150;2023-06-22T03:45:34;19.40;99.90
41694;DHT22;27377;50.666;9.150;2023-06-22T03:48:01;19.40;99.90
41694;DHT22;27377;50.666;9.150;2023-06-22T03:50:27;19.40;99.90
41694;DHT22;27377;50.666;9.150;2023-06-22T03:52:52;19.40;99.90
41694;DHT22;27377;50.666;9.150;2023-06-22T03:55:20;19.30;99.90
41694;DHT22;27377;50.666;9.150;2023-06-22T03:57:45;19.30;99.90
41694;DHT22;27377;50.666;9.150;2023-06-22T04:00:11;19.30;99.90
41694;DHT22;27377;50.666;9.150;2023-06-22T04:02:37;19.30;99.90
41694;DHT22;27377;50.666;9.150;2023-06-22T04:05:03;19.30;99.90
41694;DHT22;27377;50.666;9.150;2023-06-22T04:07:28;19.30;99.90
41694;DHT22;27377;50.666;9.150;2023-06-22T04:09:54;19.20;99.90
41694;DHT22;27377;50.666;9.150;2023-06-22T04:12:19;19.20;99.90
41694;DHT22;27377;50.666;9.150;2023-06-22T04:14:45;19.20;99.90
41694;DHT22;27377;50.666;9.150;2023-06-22T04:17:10;19.20;99.90
41694;DHT22;27377;50.666;9.150;2023-06-22T04:19:40;19.20;99.90
41694;DHT22;27377;50.666;9.150;2023-06-22T04:22:06;19.20;99.90
41694;DHT22;27377;50.666;9.150;2023-06-22T04:24:35;19.30;99.90
41694;DHT22;27377;50.666;9.150;2023-06-22T04:27:01;19.30;99.90
41694;DHT22;27377;50.666;9.150;2023-06-22T04:29:29;19.30;99.90
41694;DHT22;27377;50.666;9.150;2023-06-22T04:31:58;19.30;99.90
41694;DHT22;27377;50.666;9.150;2023-06-22T04:34:28;19.30;99.90
41694;DHT22;27377;50.666;9.150;2023-06-22T04:36:54;19.40;99.90
41694;DHT22;27377;50.666;9.150;2023-06-22T04:39:20;19.40;99.90
41694;DHT22;27377;50.666;9.150;2023-06-22T04:41:49;19.40;99.90
41694;DHT22;27377;50.666;9.150;2023-06-22T04:44:18;19.40;99.90
41694;DHT22;27377;50.666;9.150;2023-06-22T04:46:55;19.40;99.90
41694;DHT22;27377;50.666;9.150;2023-06-22T04:49:26;19.40;99.90
41694;DHT22;27377;50.666;9.150;2023-06-22T04:51:59;19.40;99.90
41694;DHT22;27377;50.666;9.150;2023-06-22T04:54:25;19.40;99.90
41694;DHT22;27377;50.666;9.150;2023-06-22T04:56:51;19.50;99.90
41694;DHT22;27377;50.666;9.150;2023-06-22T04:59:24;19.50;99.90
41694;DHT22;27377;50.666;9.150;2023-06-22T05:02:01;19.50;99.90
41694;DHT22;27377;50.666;9.150;2023-06-22T05:04:31;19.50;99.90
41694;DHT22;27377;50.666;9.150;2023-06-22T05:06:57;19.50;99.90
41694;DHT22;27377;50.666;9.150;2023-06-22T05:09:22;19.50;99.90
41694;DHT22;27377;50.666;9.150;2023-06-22T05:11:52;19.50;99.90
41694;DHT22;27377;50.666;9.150;2023-06-22T05:14:17;19.60;99.90
41694;DHT22;27377;50.666;9.150;2023-06-22T05:16:47;19.50;99.90
41694;DHT22;27377;50.666;9.150;2023-06-22T05:19:12;19.50;99.90
41694;DHT22;27377;50.666;9.150;2023-06-22T05:21:38;19.50;99.90
41694;DHT22;27377;50.666;9.150;2023-06-22T05:24:04;19.50;99.90
41694;DHT22;27377;50.666;9.150;2023-06-22T05:26:34;19.60;99.90
41694;DHT22;27377;50.666;9.150;2023-06-22T05:29:01;19.60;99.90
41694;DHT22;27377;50.666;9.150;2023-06-22T05:31:28;19.60;99.90
41694;DHT22;27377;50.666;9.150;2023-06-22T05:33:54;19.60;99.90
41694;DHT22;27377;50.666;9.150;2023-06-22T05:36:25;19.60;99.90
41694;DHT22;27377;50.666;9.150;2023-06-22T05:38:52;19.70;99.90
41694;DHT22;27377;50.666;9.150;2023-06-22T05:41:18;19.60;99.90
41694;DHT22;27377;50.666;9.150;2023-06-22T05:43:46;19.70;99.90
41694;DHT22;27377;50.666;9.150;2023-06-22T05:46:15;19.70;99.90
41694;DHT22;27377;50.666;9.150;2023-06-22T05:48:41;19.70;99.90
41694;DHT22;27377;50.666;9.150;2023-06-22T05:51:07;19.70;99.90
41694;DHT22;27377;50.666;9.150;2023-06-22T05:53:32;19.70;99.90
41694;DHT22;27377;50.666;9.150;2023-06-22T05:55:58;19.70;99.90
41694;DHT22;27377;50.666;9.150;2023-06-22T05:58:23;19.70;99.90
41694;DHT22;27377;50.666;9.150;2023-06-22T06:00:49;19.70;99.90
41694;DHT22;27377;50.666;9.150;2023-06-22T06:03:17;19.70;99.90
41694;DHT22;27377;50.666;9.150;2023-06-22T06:05:43;19.80;99.90
41694;DHT22;27377;50.666;9.150;2023-06-22T06:08:11;19.80;99.90
41694;DHT22;27377;50.666;9.150;2023-06-22T06:10:42;19.90;99.90
41694;DHT22;27377;50.666;9.150;2023-06-22T06:13:08;19.90;99.90
41694;DHT22;27377;50.666;9.150;2023-06-22T06:15:34;19.90;99.90
41694;DHT22;27377;50.666;9.150;2023-06-22T06:18:00;20.00;99.90
41694;DHT22;27377;50.666;9.150;2023-06-22T06:20:29;20.00;99.90
41694;DHT22;27377;50.666;9.150;2023-06-22T06:22:58;20.00;99.90
41694;DHT22;27377;50.666;9.150;2023-06-22T06:25:23;20.00;99.90
41694;DHT22;27377;50.666;9.150;2023-06-22T06:27:51;20.10;99.90
41694;DHT22;27377;50.666;9.150;2023-06-22T06:30:20;20.10;99.90
41694;DHT22;27377;50.666;9.150;2023-06-22T06:32:47;20.10;99.90
41694;DHT22;27377;50.666;9.150;2023-06-22T06:35:14;20.20;99.90
41694;DHT22;27377;50.666;9.150;2023-06-22T06:37:45;20.20;99.90
41694;DHT22;27377;50.666;9.150;2023-06-22T06:40:17;20.20;99.90
41694;DHT22;27377;50.666;9.150;2023-06-22T06:42:49;20.20;99.90
41694;DHT22;27377;50.666;9.150;2023-06-22T06:45:20;20.30;99.90
41694;DHT22;27377;50.666;9.150;2023-06-22T06:48:09;20.30;99.90
41694;DHT22;27377;50.666;9.150;2023-06-22T06:50:38;20.30;99.90
41694;DHT22;27377;50.666;9.150;2023-06-22T06:53:06;20.30;99.90
41694;DHT22;27377;50.666;9.150;2023-06-22T06:55:35;20.30;99.90
41694;DHT22;27377;50.666;9.150;2023-06-22T06:58:05;20.40;99.90
41694;DHT22;27377;50.666;9.150;2023-06-22T07:00:33;20.40;99.90
41694;DHT22;27377;50.666;9.150;2023-06-22T07:02:59;20.50;99.90
41694;DHT22;27377;50.666;9.150;2023-06-22T07:05:24;20.50;99.90
41694;DHT22;27377;50.666;9.150;2023-06-22T07:07:50;20.50;99.90
41694;DHT22;27377;50.666;9.150;2023-06-22T07:10:16;20.50;99.90
41694;DHT22;27377;50.666;9.150;2023-06-22T07:12:41;20.60;99.90
41694;DHT22;27377;50.666;9.150;2023-06-22T07:15:09;20.60;99.90
41694;DHT22;27377;50.666;9.150;2023-06-22T07:17:38;20.70;99.90
41694;DHT22;27377;50.666;9.150;2023-06-22T07:20:07;20.70;99.90
41694;DHT22;27377;50.666;9.150;2023-06-22T07:22:42;20.70;99.90
41694;DHT22;27377;50.666;9.150;2023-06-22T07:25:08;20.80;99.90
41694;DHT22;27377;50.666;9.150;2023-06-22T07:27:38;20.80;99.90
41694;DHT22;27377;50.666;9.150;2023-06-22T07:30:09;20.80;99.90
41694;DHT22;27377;50.666;9.150;2023-06-22T07:32:35;20.90;99.90
41694;DHT22;27377;50.666;9.150;2023-06-22T07:35:00;20.90;99.90
41694;DHT22;27377;50.666;9.150;2023-06-22T07:37:28;21.00;99.90
41694;DHT22;27377;50.666;9.150;2023-06-22T07:39:54;21.00;99.90
41694;DHT22;27377;50.666;9.150;2023-06-22T07:42:24;21.00;99.90
41694;DHT22;27377;50.666;9.150;2023-06-22T07:44:50;21.10;99.90
41694;DHT22;27377;50.666;9.150;2023-06-22T07:47:16;21.10;99.90
41694;DHT22;27377;50.666;9.150;2023-06-22T07:49:45;21.10;99.90
41694;DHT22;27377;50.666;9.150;2023-06-22T07:52:10;21.20;99.90
41694;DHT22;27377;50.666;9.150;2023-06-22T07:54:36;21.20;99.90
41694;DHT22;27377;50.666;9.150;2023-06-22T07:57:02;21.30;99.90
41694;DHT22;27377;50.666;9.150;2023-06-22T07:59:28;21.40;99.90
41694;DHT22;27377;50.666;9.150;2023-06-22T08:01:54;21.40;99.90
41694;DHT22;27377;50.666;9.150;2023-06-22T08:04:20;21.40;99.90
41694;DHT22;27377;50.666;9.150;2023-06-22T08:06:45;21.50;99.90
41694;DHT22;27377;50.666;9.150;2023-06-22T08:09:11;21.50;99.90
41694;DHT22;27377;50.666;9.150;2023-06-22T08:11:37;21.50;99.90
41694;DHT22;27377;50.666;9.150;2023-06-22T08:14:03;21.60;99.90
41694;DHT22;27377;50.666;9.150;2023-06-22T08:16:28;21.60;99.90
41694;DHT22;27377;50.666;9.150;2023-06-22T08:18:54;21.70;99.90
41694;DHT22;27377;50.666;9.150;2023-06-22T08:21:20;21.70;99.90
41694;DHT22;27377;50.666;9.150;2023-06-22T08:23:45;21.80;99.90
41694;DHT22;27377;50.666;9.150;2023-06-22T08:26:11;21.80;99.90
41694;DHT22;27377;50.666;9.150;2023-06-22T08:28:36;21.80;99.90
41694;DHT22;27377;50.666;9.150;2023-06-22T08:31:02;21.90;99.90
41694;DHT22;27377;50.666;9.150;2023-06-22T08:33:29;21.90;99.90
41694;DHT22;27377;50.666;9.150;2023-06-22T08:35:56;22.00;99.90
41694;DHT22;27377;50.666;9.150;2023-06-22T08:38:21;22.10;99.90
41694;DHT22;27377;50.666;9.150;2023-06-22T08:40:47;22.10;99.90
41694;DHT22;27377;50.666;9.150;2023-06-22T08:43:12;22.20;99.90
41694;DHT22;27377;50.666;9.150;2023-06-22T08:45:38;22.20;99.90
41694;DHT22;27377;50.666;9.150;2023-06-22T08:48:04;22.30;99.90
41694;DHT22;27377;50.666;9.150;2023-06-22T08:50:29;22.30;99.90
41694;DHT22;27377;50.666;9.150;2023-06-22T08:52:55;22.40;99.90
41694;DHT22;27377;50.666;9.150;2023-06-22T08:55:20;22.40;99.90
41694;DHT22;27377;50.666;9.150;2023-06-22T08:57:46;22.50;99.90
41694;DHT22;27377;50.666;9.150;2023-06-22T09:00:12;22.50;99.90
41694;DHT22;27377;50.666;9.150;2023-06-22T09:02:46;22.50;99.90
41694;DHT22;27377;50.666;9.150;2023-06-22T09:05:12;22.50;99.90
41694;DHT22;27377;50.666;9.150;2023-06-22T09:07:37;22.60;99.90
41694;DHT22;27377;50.666;9.150;2023-06-22T09:10:03;22.70;99.90
41694;DHT22;27377;50.666;9.150;2023-06-22T09:12:32;22.70;99.90
41694;DHT22;27377;50.666;9.150;2023-06-22T09:15:00;22.70;99.90
41694;DHT22;27377;50.666;9.150;2023-06-22T09:17:28;22.70;99.90
41694;DHT22;27377;50.666;9.150;2023-06-22T09:19:54;22.80;99.90
41694;DHT22;27377;50.666;9.150;2023-06-22T09:22:19;22.80;99.90
41694;DHT22;27377;50.666;9.150;2023-06-22T09:24:45;22.90;99.90
41694;DHT22;27377;50.666;9.150;2023-06-22T09:27:11;22.90;99.90
41694;DHT22;27377;50.666;9.150;2023-06-22T09:29:36;23.00;99.90
41694;DHT22;27377;50.666;9.150;2023-06-22T09:32:02;23.10;99.90
41694;DHT22;27377;50.666;9.150;2023-06-22T09:34:27;23.10;99.90
41694;DHT22;27377;50.666;9.150;2023-06-22T09:36:53;23.20;99.90
41694;DHT22;27377;50.666;9.150;2023-06-22T09:39:18;23.20;99.90
41694;DHT22;27377;50.666;9.150;2023-06-22T09:41:44;23.30;99.90
41694;DHT22;27377;50.666;9.150;2023-06-22T09:44:10;23.30;99.90
41694;DHT22;27377;50.666;9.150;2023-06-22T09:46:35;23.40;99.90
41694;DHT22;27377;50.666;9.150;2023-06-22T09:49:01;23.50;99.90
41694;DHT22;27377;50.666;9.150;2023-06-22T09:51:26;23.50;99.90
41694;DHT22;27377;50.666;9.150;2023-06-22T09:53:52;23.50;99.90
41694;DHT22;27377;50.666;9.150;2023-06-22T09:56:20;23.50;99.90
41694;DHT22;27377;50.666;9.150;2023-06-22T09:58:47;23.60;99.90
41694;DHT22;27377;50.666;9.150;2023-06-22T10:01:12;23.60;99.90
41694;DHT22;27377;50.666;9.150;2023-06-22T10:03:41;23.60;99.90
41694;DHT22;27377;50.666;9.150;2023-06-22T10:06:07;23.70;99.90
41694;DHT22;27377;50.666;9.150;2023-06-22T10:08:34;23.70;99.90
41694;DHT22;27377;50.666;9.150;2023-06-22T10:11:00;23.70;99.90
41694;DHT22;27377;50.666;9.150;2023-06-22T10:13:25;23.70;99.90
41694;DHT22;27377;50.666;9.150;2023-06-22T10:15:51;23.80;99.90
41694;DHT22;27377;50.666;9.150;2023-06-22T10:18:20;23.80;99.90
41694;DHT22;27377;50.666;9.150;2023-06-22T10:20:48;23.90;99.90
41694;DHT22;27377;50.666;9.150;2023-06-22T10:23:16;24.00;99.90
41694;DHT22;27377;50.666;9.150;2023-06-22T10:25:42;24.00;99.90
41694;DHT22;27377;50.666;9.150;2023-06-22T10:28:07;24.00;99.90
41694;DHT22;27377;50.666;9.150;2023-06-22T10:30:33;24.10;99.90
41694;DHT22;27377;50.666;9.150;2023-06-22T10:32:58;24.10;99.90
41694;DHT22;27377;50.666;9.150;2023-06-22T10:35:24;24.20;99.90
41694;DHT22;27377;50.666;9.150;2023-06-22T10:37:49;24.20;99.90
41694;DHT22;27377;50.666;9.150;2023-06-22T10:40:17;24.20;99.90
41694;DHT22;27377;50.666;9.150;2023-06-22T10:42:44;24.30;99.90
41694;DHT22;27377;50.666;9.150;2023-06-22T10:45:10;24.30;99.90
41694;DHT22;27377;50.666;9.150;2023-06-22T10:47:36;24.30;99.90
41694;DHT22;27377;50.666;9.150;2023-06-22T10:50:02;24.30;99.90
41694;DHT22;27377;50.666;9.150;2023-06-22T10:52:28;24.30;99.90
41694;DHT22;27377;50.666;9.150;2023-06-22T10:54:53;24.30;99.90
41694;DHT22;27377;50.666;9.150;2023-06-22T10:57:19;24.30;99.90
41694;DHT22;27377;50.666;9.150;2023-06-22T10:59:44;24.40;99.90
41694;DHT22;27377;50.666;9.150;2023-06-22T11:02:10;24.40;99.90
41694;DHT22;27377;50.666;9.150;2023-06-22T11:04:36;24.40;99.90
41694;DHT22;27377;50.666;9.150;2023-06-22T11:07:02;24.40;99.90
41694;DHT22;27377;50.666;9.150;2023-06-22T11:09:28;24.50;99.90
41694;DHT22;27377;50.666;9.150;2023-06-22T11:11:53;24.50;99.90
41694;DHT22;27377;50.666;9.150;2023-06-22T11:14:19;24.50;99.90
41694;DHT22;27377;50.666;9.150;2023-06-22T11:16:45;24.50;99.90
41694;DHT22;27377;50.666;9.150;2023-06-22T11:19:12;24.60;99.90
41694;DHT22;27377;50.666;9.150;2023-06-22T11:21:37;24.60;99.90
41694;DHT22;27377;50.666;9.150;2023-06-22T11:24:03;24.60;99.90
41694;DHT22;27377;50.666;9.150;2023-06-22T11:26:29;24.70;99.90
41694;DHT22;27377;50.666;9.150;2023-06-22T11:28:55;24.70;99.90
41694;DHT22;27377;50.666;9.150;2023-06-22T11:31:21;24.80;99.90
41694;DHT22;27377;50.666;9.150;2023-06-22T11:33:46;24.90;99.90
41694;DHT22;27377;50.666;9.150;2023-06-22T11:36:13;24.90;99.90
41694;DHT22;27377;50.666;9.150;2023-06-22T11:38:39;25.00;99.90
41694;DHT22;27377;50.666;9.150;2023-06-22T11:41:09;25.00;99.90
41694;DHT22;27377;50.666;9.150;2023-06-22T11:43:35;25.10;99.90
41694;DHT22;27377;50.666;9.150;2023-06-22T11:46:05;25.10;99.90
41694;DHT22;27377;50.666;9.150;2023-06-22T11:48:30;25.10;99.90
41694;DHT22;27377;50.666;9.150;2023-06-22T11:50:56;25.10;99.90
41694;DHT22;27377;50.666;9.150;2023-06-22T11:53:24;25.10;99.90
41694;DHT22;27377;50.666;9.150;2023-06-22T11:55:50;25.10;99.90
41694;DHT22;27377;50.666;9.150;2023-06-22T11:58:16;25.10;99.90
41694;DHT22;27377;50.666;9.150;2023-06-22T12:00:41;25.10;99.90
41694;DHT22;27377;50.666;9.150;2023-06-22T12:03:07;25.20;99.90
41694;DHT22;27377;50.666;9.150;2023-06-22T12:05:33;25.20;99.90
41694;DHT22;27377;50.666;9.150;2023-06-22T12:07:58;25.20;99.90
41694;DHT22;27377;50.666;9.150;2023-06-22T12:10:25;25.30;99.90
41694;DHT22;27377;50.666;9.150;2023-06-22T12:12:51;25.30;99.90
41694;DHT22;27377;50.666;9.150;2023-06-22T12:15:17;25.30;99.90
41694;DHT22;27377;50.666;9.150;2023-06-22T12:17:42;25.40;99.90
41694;DHT22;27377;50.666;9.150;2023-06-22T12:20:08;25.40;99.90
41694;DHT22;27377;50.666;9.150;2023-06-22T12:22:34;25.50;99.90
41694;DHT22;27377;50.666;9.150;2023-06-22T12:25:01;25.50;99.90
41694;DHT22;27377;50.666;9.150;2023-06-22T12:27:27;25.60;99.90
41694;DHT22;27377;50.666;9.150;2023-06-22T12:29:56;25.60;99.90
41694;DHT22;27377;50.666;9.150;2023-06-22T12:32:22;25.60;99.90
41694;DHT22;27377;50.666;9.150;2023-06-22T12:34:48;25.70;99.90
41694;DHT22;27377;50.666;9.150;2023-06-22T12:37:14;25.70;99.90
41694;DHT22;27377;50.666;9.150;2023-06-22T12:39:41;25.70;99.90
41694;DHT22;27377;50.666;9.150;2023-06-22T12:42:07;25.70;99.90
41694;DHT22;27377;50.666;9.150;2023-06-22T12:44:38;25.70;99.90
41694;DHT22;27377;50.666;9.150;2023-06-22T12:47:04;25.70;99.90
41694;DHT22;27377;50.666;9.150;2023-06-22T12:49:29;25.80;99.90
41694;DHT22;27377;50.666;9.150;2023-06-22T12:51:55;25.80;99.90
41694;DHT22;27377;50.666;9.150;2023-06-22T12:54:21;25.80;99.90
41694;DHT22;27377;50.666;9.150;2023-06-22T12:56:46;25.90;99.90
41694;DHT22;27377;50.666;9.150;2023-06-22T12:59:12;25.90;99.90
41694;DHT22;27377;50.666;9.150;2023-06-22T13:01:37;26.00;99.90
41694;DHT22;27377;50.666;9.150;2023-06-22T13:04:03;26.10;99.90
41694;DHT22;27377;50.666;9.150;2023-06-22T13:06:29;26.10;99.90
41694;DHT22;27377;50.666;9.150;2023-06-22T13:08:54;26.20;99.90
41694;DHT22;27377;50.666;9.150;2023-06-22T13:11:20;26.20;99.90
41694;DHT22;27377;50.666;9.150;2023-06-22T13:13:46;26.30;99.90
41694;DHT22;27377;50.666;9.150;2023-06-22T13:16:12;26.30;99.90
41694;DHT22;27377;50.666;9.150;2023-06-22T13:18:38;26.30;99.90
41694;DHT22;27377;50.666;9.150;2023-06-22T13:21:04;26.30;99.90
41694;DHT22;27377;50.666;9.150;2023-06-22T13:23:30;26.40;99.90
41694;DHT22;27377;50.666;9.150;2023-06-22T13:25:55;26.40;99.90
41694;DHT22;27377;50.666;9.150;2023-06-22T13:28:21;26.40;99.90
41694;DHT22;27377;50.666;9.150;2023-06-22T13:30:47;26.50;99.90
41694;DHT22;27377;50.666;9.150;2023-06-22T13:33:13;26.50;99.90
41694;DHT22;27377;50.666;9.150;2023-06-22T13:35:39;26.60;99.90
41694;DHT22;27377;50.666;9.150;2023-06-22T13:38:05;26.70;99.90
41694;DHT22;27377;50.666;9.150;2023-06-22T13:40:30;26.70;99.90
41694;DHT22;27377;50.666;9.150;2023-06-22T13:42:56;26.70;99.90
41694;DHT22;27377;50.666;9.150;2023-06-22T13:45:22;26.80;99.90
41694;DHT22;27377;50.666;9.150;2023-06-22T13:47:48;26.80;99.90
41694;DHT22;27377;50.666;9.150;2023-06-22T13:50:13;26.70;99.90
41694;DHT22;27377;50.666;9.150;2023-06-22T13:52:39;26.70;99.90
41694;DHT22;27377;50.666;9.150;2023-06-22T13:55:05;26.70;99.90
41694;DHT22;27377;50.666;9.150;2023-06-22T13:57:32;26.80;99.90
41694;DHT22;27377;50.666;9.150;2023-06-22T13:59:58;26.80;99.90
41694;DHT22;27377;50.666;9.150;2023-06-22T14:02:25;26.80;99.90
41694;DHT22;27377;50.666;9.150;2023-06-22T14:04:51;26.80;99.90
41694;DHT22;27377;50.666;9.150;2023-06-22T14:07:16;26.90;99.90
41694;DHT22;27377;50.666;9.150;2023-06-22T14:09:42;26.90;99.90
41694;DHT22;27377;50.666;9.150;2023-06-22T14:12:08;27.00;99.90
41694;DHT22;27377;50.666;9.150;2023-06-22T14:14:33;27.00;99.90
41694;DHT22;27377;50.666;9.150;2023-06-22T14:16:59;27.00;99.90
41694;DHT22;27377;50.666;9.150;2023-06-22T14:19:25;27.00;99.90
41694;DHT22;27377;50.666;9.150;2023-06-22T14:21:51;27.00;99.90
41694;DHT22;27377;50.666;9.150;2023-06-22T14:24:17;27.00;99.90
41694;DHT22;27377;50.666;9.150;2023-06-22T14:26:43;27.00;99.90
41694;DHT22;27377;50.666;9.150;2023-06-22T14:29:08;27.00;99.90
41694;DHT22;27377;50.666;9.150;2023-06-22T14:31:34;27.00;99.90
41694;DHT22;27377;50.666;9.150;2023-06-22T14:34:00;27.10;99.90
41694;DHT22;27377;50.666;9.150;2023-06-22T14:36:25;27.10;99.90
41694;DHT22;27377;50.666;9.150;2023-06-22T14:38:51;27.20;99.90
41694;DHT22;27377;50.666;9.150;2023-06-22T14:41:16;27.20;99.90
41694;DHT22;27377;50.666;9.150;2023-06-22T14:43:46;27.20;99.90
41694;DHT22;27377;50.666;9.150;2023-06-22T14:46:12;27.20;99.90
41694;DHT22;27377;50.666;9.150;2023-06-22T14:48:38;27.20;99.90
41694;DHT22;27377;50.666;9.150;2023-06-22T14:51:03;27.20;99.90
41694;DHT22;27377;50.666;9.150;2023-06-22T14:53:29;27.30;99.90
41694;DHT22;27377;50.666;9.150;2023-06-22T14:55:54;27.30;99.90
41694;DHT22;27377;50.666;9.150;2023-06-22T14:58:20;27.30;99.90
41694;DHT22;27377;50.666;9.150;2023-06-22T15:00:46;27.20;99.90
41694;DHT22;27377;50.666;9.150;2023-06-22T15:03:11;27.10;99.90
41694;DHT22;27377;50.666;9.150;2023-06-22T15:05:43;27.00;99.90
41694;DHT22;27377;50.666;9.150;2023-06-22T15:08:09;27.00;99.90
41694;DHT22;27377;50.666;9.150;2023-06-22T15:10:34;26.90;99.90
41694;DHT22;27377;50.666;9.150;2023-06-22T15:13:03;26.90;99.90
41694;DHT22;27377;50.666;9.150;2023-06-22T15:15:28;26.80;99.90
41694;DHT22;27377;50.666;9.150;2023-06-22T15:17:54;26.80;99.90
41694;DHT22;27377;50.666;9.150;2023-06-22T15:20:20;26.80;99.90
41694;DHT22;27377;50.666;9.150;2023-06-22T15:22:45;26.70;99.90
41694;DHT22;27377;50.666;9.150;2023-06-22T15:25:11;26.70;99.90
41694;DHT22;27377;50.666;9.150;2023-06-22T15:27:36;26.70;99.90
41694;DHT22;27377;50.666;9.150;2023-06-22T15:30:02;26.60;99.90